createdAt,value
2022-11-20T00:01:34.353Z,96897.70
2022-11-20T00:04:02.657Z,96891.56
2022-11-20T00:06:30.711Z,96884.34
2022-11-20T00:09:01.394Z,96882.39
2022-11-20T00:11:30.811Z,96880.42
2022-11-20T00:14:01.761Z,96884.35
2022-11-20T00:16:32.869Z,96872.65
2022-11-20T00:19:01.042Z,96863.73
2022-11-20T00:21:30.841Z,96858.47
2022-11-20T00:23:59.429Z,96854.95
2022-11-20T00:26:28.725Z,96850.80
2022-11-20T00:29:02.704Z,96845.64
2022-11-20T00:31:31.685Z,96843.70
2022-11-20T00:33:59.592Z,96838.18
2022-11-20T00:36:29.752Z,96836.59
2022-11-20T00:38:59.348Z,96841.07
2022-11-20T00:41:29.315Z,96843.21
2022-11-20T00:43:58.075Z,96847.39
2022-11-20T00:46:28.612Z,96845.16
2022-11-20T00:48:56.675Z,96843.15
2022-11-20T00:51:26.879Z,96843.31
2022-11-20T00:54:01.157Z,96837.20
2022-11-20T00:56:29.633Z,96837.02
2022-11-20T00:59:02.046Z,96839.90
2022-11-20T01:01:31.036Z,96839.80
2022-11-20T01:04:01.724Z,96839.71
2022-11-20T01:06:34.919Z,96836.59
2022-11-20T01:09:10.464Z,96835.95
2022-11-20T01:11:40.959Z,96835.47
2022-11-20T01:14:17.045Z,96828.33
2022-11-20T01:16:48.347Z,96824.94
2022-11-20T01:19:20.105Z,96813.98
2022-11-20T01:21:54.093Z,96803.11
2022-11-20T01:24:22.988Z,96795.02
2022-11-20T01:26:52.090Z,96793.99
2022-11-20T01:29:23.296Z,96794.96
2022-11-20T01:31:53.631Z,96796.16
2022-11-20T01:34:23.585Z,96782.90
2022-11-20T01:36:52.584Z,96770.48
2022-11-20T01:39:26.008Z,96771.08
2022-11-20T01:42:15.949Z,96768.94
2022-11-20T01:44:57.939Z,96767.89
2022-11-20T01:47:32.533Z,96774.96
2022-11-20T01:50:06.815Z,96772.48
2022-11-20T01:52:40.757Z,96765.91
2022-11-20T01:55:10.468Z,96755.64
2022-11-20T01:57:39.959Z,96747.00
2022-11-20T02:00:14.555Z,96743.13
2022-11-20T02:02:46.674Z,96744.20
2022-11-20T02:05:37.041Z,96739.20
2022-11-20T02:08:07.617Z,96726.77
2022-11-20T02:10:36.452Z,96716.05
2022-11-20T02:13:23.502Z,96717.25
2022-11-20T02:15:51.511Z,96720.03
2022-11-20T02:18:21.281Z,96719.16
2022-11-20T02:20:54.404Z,96718.38
2022-11-20T02:23:27.606Z,96720.54
2022-11-20T02:25:56.897Z,96718.84
2022-11-20T02:28:25.200Z,96714.54
2022-11-20T02:30:53.026Z,96711.19
2022-11-20T02:33:20.995Z,96715.46
2022-11-20T02:35:48.919Z,96715.36
2022-11-20T02:38:16.717Z,96707.86
2022-11-20T02:40:44.882Z,96696.31
2022-11-20T02:43:15.447Z,96667.36
2022-11-20T02:45:43.503Z,96651.33
2022-11-20T02:48:11.397Z,96652.63
2022-11-20T02:50:41.143Z,96659.30
2022-11-20T02:53:09.137Z,96663.71
2022-11-20T02:55:37.420Z,96667.12
2022-11-20T02:58:05.494Z,96663.50
2022-11-20T03:00:33.651Z,96654.42
2022-11-20T03:03:01.468Z,96648.02
2022-11-20T03:05:29.364Z,96652.64
2022-11-20T03:07:57.194Z,96648.84
2022-11-20T03:10:25.068Z,96651.70
2022-11-20T03:12:56.784Z,96650.08
2022-11-20T03:15:25.055Z,96646.02
2022-11-20T03:17:56.745Z,96640.91
2022-11-20T03:20:24.874Z,96643.41
2022-11-20T03:22:55.098Z,96646.55
2022-11-20T03:25:23.578Z,96640.46
2022-11-20T03:27:52.491Z,96625.91
2022-11-20T03:30:20.271Z,96618.69
2022-11-20T03:32:48.060Z,96606.77
2022-11-20T03:35:15.983Z,96585.25
2022-11-20T03:37:43.781Z,96582.83
2022-11-20T03:40:11.739Z,96570.33
2022-11-20T03:42:48.944Z,96551.48
2022-11-20T03:45:19.147Z,96555.64
2022-11-20T03:47:47.444Z,96589.77
2022-11-20T03:50:15.754Z,96590.64
2022-11-20T03:52:43.952Z,96592.86
2022-11-20T03:55:11.874Z,96579.88
2022-11-20T03:57:42.354Z,96589.78
2022-11-20T04:00:15.697Z,96596.80
2022-11-20T04:02:43.737Z,96596.39
2022-11-20T04:05:11.829Z,96598.27
2022-11-20T04:07:39.728Z,96592.81
2022-11-20T04:10:09.827Z,96591.13
2022-11-20T04:12:37.767Z,96583.05
2022-11-20T04:15:05.848Z,96588.60
2022-11-20T04:17:33.844Z,96587.84
2022-11-20T04:20:02.295Z,96586.79
2022-11-20T04:22:30.311Z,96590.90
2022-11-20T04:24:58.203Z,96591.16
2022-11-20T04:27:26.084Z,96586.27
2022-11-20T04:29:53.872Z,96576.21
2022-11-20T04:32:23.545Z,96576.21
2022-11-20T04:34:51.511Z,96582.45
2022-11-20T04:37:21.840Z,96577.81
2022-11-20T04:39:49.813Z,96569.81
2022-11-20T04:42:29.545Z,96570.55
2022-11-20T04:44:58.999Z,96567.02
2022-11-20T04:47:26.970Z,96568.16
2022-11-20T04:49:54.926Z,96561.20
2022-11-20T04:52:22.815Z,96548.15
2022-11-20T04:54:53.825Z,96540.60
2022-11-20T04:57:21.875Z,96536.98
2022-11-20T04:59:49.728Z,96539.70
2022-11-20T05:02:18.118Z,96535.75
2022-11-20T05:04:45.963Z,96534.34
2022-11-20T05:07:13.791Z,96532.11
2022-11-20T05:09:41.688Z,96528.21
2022-11-20T05:12:10.055Z,96522.91
2022-11-20T05:14:37.997Z,96521.55
2022-11-20T05:17:05.917Z,96523.90
2022-11-20T05:19:33.812Z,96518.02
2022-11-20T05:22:01.677Z,96512.01
2022-11-20T05:24:29.499Z,96500.61
2022-11-20T05:26:57.293Z,96495.23
2022-11-20T05:29:25.094Z,96495.94
2022-11-20T05:31:52.957Z,96499.92
2022-11-20T05:34:20.813Z,96500.89
2022-11-20T05:36:48.606Z,96499.15
2022-11-20T05:39:16.598Z,96496.54
2022-11-20T05:41:44.407Z,96498.44
2022-11-20T05:44:12.423Z,96506.70
2022-11-20T05:46:40.284Z,96515.04
2022-11-20T05:49:08.079Z,96515.27
2022-11-20T05:51:35.880Z,96522.55
2022-11-20T05:54:03.703Z,96528.09
2022-11-20T05:56:31.690Z,96531.27
2022-11-20T05:58:59.541Z,96532.43
2022-11-20T06:01:27.546Z,96528.97
2022-11-20T06:03:55.856Z,96530.48
2022-11-20T06:06:24.316Z,96527.98
2022-11-20T06:08:52.254Z,96527.56
2022-11-20T06:11:20.267Z,96532.60
2022-11-20T06:13:48.199Z,96535.58
2022-11-20T06:16:19.481Z,96533.69
2022-11-20T06:18:48.048Z,96525.60
2022-11-20T06:21:21.419Z,96524.95
2022-11-20T06:23:50.699Z,96532.04
2022-11-20T06:26:21.726Z,96533.83
2022-11-20T06:28:49.739Z,96526.27
2022-11-20T06:31:19.809Z,96524.36
2022-11-20T06:33:48.389Z,96522.86
2022-11-20T06:36:19.538Z,96524.97
2022-11-20T06:38:47.835Z,96529.92
2022-11-20T06:41:18.654Z,96537.21
2022-11-20T06:43:46.785Z,96539.96
2022-11-20T06:46:18.633Z,96537.64
2022-11-20T06:48:48.478Z,96538.61
2022-11-20T06:51:17.488Z,96542.36
2022-11-20T06:53:46.104Z,96551.83
2022-11-20T06:56:14.374Z,96558.89
2022-11-20T06:58:42.520Z,96560.81
2022-11-20T07:01:12.563Z,96561.84
2022-11-20T07:03:41.367Z,96564.84
2022-11-20T07:06:09.847Z,96569.72
2022-11-20T07:08:37.840Z,96565.13
2022-11-20T07:11:07.933Z,96551.36
2022-11-20T07:13:35.902Z,96550.20
2022-11-20T07:16:07.709Z,96552.58
2022-11-20T07:18:36.705Z,96549.77
2022-11-20T07:21:07.161Z,96547.42
2022-11-20T07:23:35.436Z,96550.34
2022-11-20T07:26:08.412Z,96548.46
2022-11-20T07:28:37.567Z,96553.79
2022-11-20T07:31:07.825Z,96553.41
2022-11-20T07:33:36.129Z,96550.34
2022-11-20T07:36:04.687Z,96552.23
2022-11-20T07:38:32.559Z,96553.08
2022-11-20T07:41:02.634Z,96553.94
2022-11-20T07:43:30.934Z,96549.48
2022-11-20T07:45:59.992Z,96549.98
2022-11-20T07:48:28.009Z,96559.29
2022-11-20T07:50:59.352Z,96560.25
2022-11-20T07:53:27.312Z,96556.46
2022-11-20T07:55:55.232Z,96566.14
2022-11-20T07:58:23.095Z,96573.11
2022-11-20T08:00:51.304Z,96583.46
2022-11-20T08:03:24.329Z,96576.42
2022-11-20T08:05:53.529Z,96570.29
2022-11-20T08:08:22.769Z,96576.58
2022-11-20T08:10:50.689Z,96580.68
2022-11-20T08:13:36.924Z,96584.41
2022-11-20T08:16:05.104Z,96581.50
2022-11-20T08:18:33.269Z,96578.58
2022-11-20T08:21:05.788Z,96584.23
2022-11-20T08:23:33.578Z,96586.90
2022-11-20T08:26:01.467Z,96589.77
2022-11-20T08:28:29.468Z,96590.23
2022-11-20T08:31:01.580Z,96585.42
2022-11-20T08:33:29.518Z,96588.86
2022-11-20T08:36:04.657Z,96576.40
2022-11-20T08:38:33.387Z,96575.85
2022-11-20T08:41:21.412Z,96578.14
2022-11-20T08:43:49.520Z,96580.11
2022-11-20T08:46:17.903Z,96574.70
2022-11-20T08:48:46.257Z,96581.88
2022-11-20T08:51:14.106Z,96588.57
2022-11-20T08:53:42.241Z,96597.33
2022-11-20T08:56:13.027Z,96599.31
2022-11-20T08:59:09.878Z,96609.02
2022-11-20T09:01:30.443Z,96606.91
2022-11-20T09:04:00.547Z,96601.31
2022-11-20T09:06:28.489Z,96602.39
2022-11-20T09:08:57.378Z,96597.22
2022-11-20T09:11:27.539Z,96591.45
2022-11-20T09:13:55.383Z,96589.38
2022-11-20T09:16:23.181Z,96596.18
2022-11-20T09:19:07.295Z,96605.25
2022-11-20T09:21:39.857Z,96607.21
2022-11-20T09:24:07.979Z,96604.23
2022-11-20T09:26:35.764Z,96601.98
2022-11-20T09:29:03.620Z,96596.78
2022-11-20T09:31:31.520Z,96588.02
2022-11-20T09:33:59.335Z,96588.41
2022-11-20T09:36:27.592Z,96589.58
2022-11-20T09:38:57.293Z,96592.85
2022-11-20T09:41:52.720Z,96588.73
2022-11-20T09:44:51.030Z,96584.14
2022-11-20T09:47:29.648Z,96587.69
2022-11-20T09:50:21.043Z,96586.92
2022-11-20T09:53:26.862Z,96577.68
2022-11-20T09:55:56.686Z,96578.13
2022-11-20T09:58:40.697Z,96582.04
2022-11-20T10:01:20.839Z,96583.20
2022-11-20T10:04:06.084Z,96578.63
2022-11-20T10:06:39.009Z,96571.44
2022-11-20T10:09:12.954Z,96578.98
2022-11-20T10:11:58.925Z,96573.80
2022-11-20T10:14:40.283Z,96566.44
2022-11-20T10:17:21.170Z,96571.85
2022-11-20T10:19:56.578Z,96572.79
2022-11-20T10:22:57.713Z,96573.04
2022-11-20T10:25:29.753Z,96573.40
2022-11-20T10:28:18.330Z,96573.79
2022-11-20T10:30:50.410Z,96570.67
2022-11-20T10:33:23.845Z,96565.93
2022-11-20T10:36:13.633Z,96567.17
2022-11-20T10:38:46.180Z,96564.60
2022-11-20T10:41:31.938Z,96569.55
2022-11-20T10:44:38.874Z,96570.95
2022-11-20T10:47:15.214Z,96571.95
2022-11-20T10:49:47.129Z,96566.70
2022-11-20T10:52:33.845Z,96568.50
2022-11-20T10:55:34.192Z,96567.45
2022-11-20T10:58:15.368Z,96567.60
2022-11-20T11:00:43.366Z,96565.15
2022-11-20T11:03:24.991Z,96560.38
2022-11-20T11:06:09.120Z,96566.36
2022-11-20T11:08:41.199Z,96560.05
2022-11-20T11:11:25.499Z,96560.19
2022-11-20T11:13:53.349Z,96563.86
2022-11-20T11:16:24.170Z,96566.80
2022-11-20T11:18:52.782Z,96564.01
2022-11-20T11:21:27.706Z,96569.34
2022-11-20T11:24:19.855Z,96572.21
2022-11-20T11:27:00.181Z,96575.64
2022-11-20T11:29:30.593Z,96571.77
2022-11-20T11:32:21.815Z,96574.09
2022-11-20T11:35:26.559Z,96562.50
2022-11-20T11:38:05.266Z,96561.22
2022-11-20T11:40:36.183Z,96568.26
2022-11-20T11:43:27.989Z,96575.33
2022-11-20T11:45:56.720Z,96575.85
2022-11-20T11:48:24.501Z,96577.81
2022-11-20T11:50:53.234Z,96579.58
2022-11-20T11:53:24.073Z,96583.39
2022-11-20T11:55:55.651Z,96583.16
2022-11-20T11:58:36.105Z,96578.38
2022-11-20T12:01:19.212Z,96578.20
2022-11-20T12:04:00.380Z,96579.27
2022-11-20T12:06:32.566Z,96580.22
2022-11-20T12:09:02.950Z,96578.05
2022-11-20T12:11:38.588Z,96580.08
2022-11-20T12:14:26.385Z,96578.14
2022-11-20T12:16:57.831Z,96576.73
2022-11-20T12:19:25.956Z,96569.62
2022-11-20T12:22:03.353Z,96571.13
2022-11-20T12:24:44.937Z,96566.27
2022-11-20T12:27:34.632Z,96566.41
2022-11-20T12:30:05.879Z,96575.45
2022-11-20T12:32:42.700Z,96581.98
2022-11-20T12:35:48.444Z,96587.19
2022-11-20T12:38:31.681Z,96590.11
2022-11-20T12:41:05.516Z,96595.02
2022-11-20T12:44:24.895Z,96597.59
2022-11-20T12:47:15.660Z,96593.34
2022-11-20T12:50:06.335Z,96587.70
2022-11-20T12:52:57.952Z,96588.58
2022-11-20T12:55:37.656Z,96583.91
2022-11-20T12:58:36.823Z,96581.56
2022-11-20T13:01:48.824Z,96574.50
2022-11-20T13:04:43.959Z,96579.64
2022-11-20T13:07:15.606Z,96590.66
2022-11-20T13:09:49.581Z,96590.02
2022-11-20T13:12:19.993Z,96578.27
2022-11-20T13:14:59.894Z,96582.02
2022-11-20T13:17:43.879Z,96585.59
2022-11-20T13:20:18.281Z,96587.48
2022-11-20T13:22:52.838Z,96580.14
2022-11-20T13:25:34.640Z,96585.96
2022-11-20T13:28:11.657Z,96590.10
2022-11-20T13:30:52.430Z,96583.08
2022-11-20T13:33:40.172Z,96579.13
2022-11-20T13:36:22.563Z,96578.99
2022-11-20T13:38:52.604Z,96576.98
2022-11-20T13:41:29.473Z,96577.30
2022-11-20T13:44:24.628Z,96585.54
2022-11-20T13:46:52.733Z,96600.23
2022-11-20T13:49:34.312Z,96610.33
2022-11-20T13:52:29.929Z,96596.86
2022-11-20T13:55:27.478Z,96602.56
2022-11-20T13:58:00.969Z,96610.87
2022-11-20T14:00:28.964Z,96603.03
2022-11-20T14:03:02.232Z,96613.83
2022-11-20T14:05:35.791Z,96617.86
2022-11-20T14:08:07.141Z,96620.36
2022-11-20T14:10:35.026Z,96613.10
2022-11-20T14:13:22.114Z,96609.95
2022-11-20T14:15:58.313Z,96613.69
2022-11-20T14:18:28.447Z,96618.80
2022-11-20T14:20:56.308Z,96622.33
2022-11-20T14:23:30.170Z,96623.02
2022-11-20T14:25:58.955Z,96623.38
2022-11-20T14:28:28.630Z,96623.05
2022-11-20T14:30:57.890Z,96619.13
2022-11-20T14:33:27.919Z,96615.23
2022-11-20T14:35:58.513Z,96612.48
2022-11-20T14:38:28.950Z,96610.23
2022-11-20T14:41:08.658Z,96610.40
2022-11-20T14:43:38.769Z,96612.61
2022-11-20T14:46:09.967Z,96614.27
2022-11-20T14:48:48.526Z,96611.92
2022-11-20T14:51:43.736Z,96600.56
2022-11-20T14:54:15.281Z,96602.68
2022-11-20T14:56:54.590Z,96611.11
2022-11-20T14:59:30.832Z,96615.29
2022-11-20T15:02:13.171Z,96623.00
2022-11-20T15:04:49.004Z,96632.05
2022-11-20T15:07:29.275Z,96631.66
2022-11-20T15:10:13.477Z,96628.58
2022-11-20T15:12:51.960Z,96628.95
2022-11-20T15:15:34.664Z,96628.45
2022-11-20T15:18:03.206Z,96619.70
2022-11-20T15:20:33.562Z,96615.98
2022-11-20T15:23:01.502Z,96618.54
2022-11-20T15:25:29.497Z,96616.23
2022-11-20T15:27:58.143Z,96611.88
2022-11-20T15:30:26.288Z,96603.14
2022-11-20T15:32:54.135Z,96600.46
2022-11-20T15:35:22.113Z,96601.30
2022-11-20T15:37:50.094Z,96592.75
2022-11-20T15:40:17.977Z,96593.52
2022-11-20T15:43:05.840Z,96598.63
2022-11-20T15:45:57.871Z,96600.14
2022-11-20T15:48:32.876Z,96597.55
2022-11-20T15:51:13.798Z,96591.03
2022-11-20T15:53:43.030Z,96592.38
2022-11-20T15:56:13.806Z,96599.04
2022-11-20T15:58:42.291Z,96598.69
2022-11-20T16:01:16.058Z,96596.33
2022-11-20T16:03:44.392Z,96594.14
2022-11-20T16:06:12.259Z,96597.77
2022-11-20T16:08:40.324Z,96599.80
2022-11-20T16:11:08.655Z,96604.81
2022-11-20T16:13:55.632Z,96609.34
2022-11-20T16:16:32.626Z,96614.05
2022-11-20T16:19:01.290Z,96617.45
2022-11-20T16:21:32.516Z,96614.88
2022-11-20T16:24:03.534Z,96609.57
2022-11-20T16:26:31.728Z,96608.67
2022-11-20T16:29:00.490Z,96613.57
2022-11-20T16:31:28.331Z,96617.80
2022-11-20T16:33:58.058Z,96621.10
2022-11-20T16:36:28.411Z,96624.61
2022-11-20T16:38:58.476Z,96619.20
2022-11-20T16:41:29.057Z,96608.88
2022-11-20T16:43:59.841Z,96601.27
2022-11-20T16:46:30.501Z,96599.50
2022-11-20T16:49:06.607Z,96597.14
2022-11-20T16:51:36.404Z,96600.17
2022-11-20T16:54:09.270Z,96605.70
2022-11-20T16:56:37.462Z,96609.17
2022-11-20T16:59:07.471Z,96605.77
2022-11-20T17:01:38.648Z,96604.23
2022-11-20T17:04:07.592Z,96610.46
2022-11-20T17:06:38.135Z,96614.39
2022-11-20T17:09:07.026Z,96621.11
2022-11-20T17:11:35.053Z,96631.49
2022-11-20T17:14:09.318Z,96638.70
2022-11-20T17:16:38.688Z,96636.23
2022-11-20T17:19:06.914Z,96640.46
2022-11-20T17:21:36.420Z,96644.06
2022-11-20T17:24:06.751Z,96648.17
2022-11-20T17:26:37.138Z,96648.77
2022-11-20T17:29:14.028Z,96647.77
2022-11-20T17:31:42.485Z,96651.71
2022-11-20T17:34:15.265Z,96655.02
2022-11-20T17:36:46.953Z,96658.14
2022-11-20T17:39:16.652Z,96660.20
2022-11-20T17:41:45.460Z,96657.08
2022-11-20T17:44:13.541Z,96658.45
2022-11-20T17:46:41.487Z,96663.89
2022-11-20T17:49:09.269Z,96663.48
2022-11-20T17:51:37.180Z,96668.41
2022-11-20T17:54:07.730Z,96668.22
2022-11-20T17:56:54.838Z,96665.10
2022-11-20T17:59:24.544Z,96665.26
2022-11-20T18:01:52.372Z,96664.73
2022-11-20T18:04:20.737Z,96666.69
2022-11-20T18:06:48.595Z,96668.76
2022-11-20T18:09:16.676Z,96667.09
2022-11-20T18:11:44.666Z,96661.38
2022-11-20T18:14:32.406Z,96659.58
2022-11-20T18:17:09.869Z,96656.06
2022-11-20T18:19:55.696Z,96653.73
2022-11-20T18:22:31.773Z,96643.92
2022-11-20T18:24:59.705Z,96641.38
2022-11-20T18:27:27.602Z,96631.88
2022-11-20T18:29:55.718Z,96628.66
2022-11-20T18:32:27.584Z,96630.21
2022-11-20T18:34:55.527Z,96628.84
2022-11-20T18:37:23.636Z,96628.80
2022-11-20T18:39:51.878Z,96630.41
2022-11-20T18:42:38.379Z,96629.95
2022-11-20T18:45:06.744Z,96635.94
2022-11-20T18:47:40.266Z,96637.90
2022-11-20T18:50:09.142Z,96638.52
2022-11-20T18:52:44.809Z,96632.56
2022-11-20T18:55:13.436Z,96633.75
2022-11-20T18:57:41.390Z,96640.32
2022-11-20T19:00:10.332Z,96642.84
2022-11-20T19:02:42.033Z,96640.31
2022-11-20T19:05:12.347Z,96632.15
2022-11-20T19:07:40.774Z,96629.86
2022-11-20T19:10:08.872Z,96635.25
2022-11-20T19:12:36.923Z,96634.52
2022-11-20T19:15:05.296Z,96639.61
2022-11-20T19:17:34.113Z,96644.06
2022-11-20T19:20:02.042Z,96647.07
2022-11-20T19:22:31.937Z,96646.98
2022-11-20T19:25:00.060Z,96635.27
2022-11-20T19:27:27.903Z,96628.95
2022-11-20T19:30:03.263Z,96618.61
2022-11-20T19:32:32.769Z,96617.00
2022-11-20T19:35:01.105Z,96625.92
2022-11-20T19:37:29.075Z,96628.37
2022-11-20T19:39:59.682Z,96634.95
2022-11-20T19:42:27.602Z,96633.52
2022-11-20T19:44:55.727Z,96627.61
2022-11-20T19:47:35.423Z,96630.95
2022-11-20T19:50:13.103Z,96631.15
2022-11-20T19:52:41.023Z,96628.37
2022-11-20T19:55:10.195Z,96629.36
2022-11-20T19:57:38.293Z,96634.27
2022-11-20T20:00:06.824Z,96640.86
2022-11-20T20:02:34.757Z,96643.17
2022-11-20T20:05:02.623Z,96641.03
2022-11-20T20:07:30.511Z,96641.67
2022-11-20T20:09:58.404Z,96643.02
2022-11-20T20:12:26.210Z,96647.54
2022-11-20T20:14:54.082Z,96645.40
2022-11-20T20:17:21.876Z,96644.86
2022-11-20T20:19:49.728Z,96643.02
2022-11-20T20:22:17.788Z,96640.62
2022-11-20T20:24:45.604Z,96640.23
2022-11-20T20:27:13.490Z,96631.95
2022-11-20T20:29:41.295Z,96624.41
2022-11-20T20:32:09.237Z,96623.58
2022-11-20T20:34:37.141Z,96628.08
2022-11-20T20:37:05.295Z,96630.91
2022-11-20T20:39:33.318Z,96630.02
2022-11-20T20:42:01.181Z,96627.94
2022-11-20T20:44:47.643Z,96624.42
2022-11-20T20:47:15.536Z,96625.56
2022-11-20T20:49:43.385Z,96630.17
2022-11-20T20:52:11.267Z,96633.75
2022-11-20T20:54:41.484Z,96639.27
2022-11-20T20:57:09.344Z,96640.50
2022-11-20T20:59:37.278Z,96636.80
2022-11-20T21:02:05.340Z,96638.23
2022-11-20T21:04:33.963Z,96645.67
2022-11-20T21:07:01.799Z,96646.00
2022-11-20T21:09:29.746Z,96639.00
2022-11-20T21:12:00.433Z,96636.55
2022-11-20T21:14:28.224Z,96637.02
2022-11-20T21:16:56.231Z,96642.54
2022-11-20T21:19:24.230Z,96645.21
2022-11-20T21:22:03.048Z,96648.63
2022-11-20T21:24:33.551Z,96645.46
2022-11-20T21:27:03.806Z,96636.30
2022-11-20T21:29:31.956Z,96627.39
2022-11-20T21:31:59.869Z,96625.42
2022-11-20T21:34:27.932Z,96622.89
2022-11-20T21:36:55.837Z,96619.02
2022-11-20T21:39:23.763Z,96614.77
2022-11-20T21:41:51.588Z,96610.84
2022-11-20T21:44:34.822Z,96604.69
2022-11-20T21:47:02.756Z,96606.34
2022-11-20T21:49:30.653Z,96612.20
2022-11-20T21:51:58.654Z,96616.52
2022-11-20T21:54:26.803Z,96614.48
2022-11-20T21:56:55.104Z,96608.41
2022-11-20T21:59:23.723Z,96604.69
2022-11-20T22:01:51.775Z,96597.02
2022-11-20T22:04:20.339Z,96597.88
2022-11-20T22:06:48.786Z,96599.61
2022-11-20T22:09:16.812Z,96602.95
2022-11-20T22:11:44.674Z,96608.70
2022-11-20T22:14:21.649Z,96614.30
2022-11-20T22:16:51.507Z,96611.05
2022-11-20T22:19:20.821Z,96606.14
2022-11-20T22:21:50.746Z,96601.33
2022-11-20T22:24:21.100Z,96598.70
2022-11-20T22:26:49.980Z,96596.00
2022-11-20T22:29:21.110Z,96598.48
2022-11-20T22:31:52.140Z,96594.92
2022-11-20T22:34:20.021Z,96584.14
2022-11-20T22:36:47.912Z,96583.98
2022-11-20T22:39:15.907Z,96575.17
2022-11-20T22:41:43.738Z,96572.33
2022-11-20T22:44:15.746Z,96567.40
2022-11-20T22:46:43.597Z,96553.63
2022-11-20T22:49:11.534Z,96547.20
2022-11-20T22:51:41.630Z,96544.03
2022-11-20T22:54:12.080Z,96535.53
2022-11-20T22:56:40.784Z,96531.11
2022-11-20T22:59:08.796Z,96528.80
2022-11-20T23:01:38.149Z,96525.70
2022-11-20T23:04:09.899Z,96524.81
2022-11-20T23:06:37.871Z,96524.21
2022-11-20T23:09:07.700Z,96514.54
2022-11-20T23:11:36.360Z,96507.94
2022-11-20T23:14:12.510Z,96504.95
2022-11-20T23:16:40.820Z,96504.48
2022-11-20T23:19:11.651Z,96506.17
2022-11-20T23:21:40.908Z,96507.94
2022-11-20T23:24:09.864Z,96499.67
2022-11-20T23:26:39.672Z,96493.80
2022-11-20T23:29:08.256Z,96486.21
2022-11-20T23:31:36.388Z,96489.02
2022-11-20T23:34:05.275Z,96489.08
2022-11-20T23:36:33.290Z,96488.26
2022-11-20T23:39:01.266Z,96481.77
2022-11-20T23:41:29.113Z,96485.55
2022-11-20T23:43:56.960Z,96490.23
2022-11-20T23:46:25.416Z,96487.11
2022-11-20T23:48:53.340Z,96486.66
2022-11-20T23:51:21.175Z,96488.00
2022-11-20T23:53:49.116Z,96485.20
2022-11-20T23:56:17.024Z,96484.45
2022-11-20T23:58:44.884Z,96482.16
